Porter, Maine
Current Conditions -  °F | °C
As of 10:54 AM on Friday 24 Oct 2014 (Local Time) from KIZG Reporting Station
Light Rain Light Rain  
Wind Chill: 47°   Ceiling: 3000
Heat Index: 49°   Visibility: 10mi
Dew Point: 45°   Wind: 5mph
Humidity: 86%   Direction: 350°N
Pressure: 29.71"   Gusts: NA
Location:  43.8°N, 70.93°W
Report Text: KIZG 241454Z AUTO 35004KT 10SM -RA BKN030 BKN046 OVC090 09/07 A2971 RMK AO2 SLP064 P0001 60002 T00940072 58001
Loading
Personal Weather Stations






























Interactive Weather Map
Tropical Storm Tracking
New forecast layout! Learn more

10-Day Weather Forecast

Advertisements
Track Severe Weather on mobile